Wilmington, North Carolina
Current Conditions -  °F | °C
As of 12:53 PM on Monday 24 Nov 2014 (Local Time) from KILM Reporting Station
Overcast Overcast  
Wind Chill: 22°   Ceiling: 800
Heat Index: 22°   Visibility: 7mi
Dew Point: 21°   Wind: 15mph
Humidity: 93%   Direction: 210°SSW
Pressure: 29.86"   Gusts: 25mph
Location:  34.24°N, 77.94°W
Report Text: KILM 241753Z 21013G22KT 7SM OVC008 22/21 A2986 RMK AO2 SLP110 60007 T02170206 10222 20194 58013
Loading
Personal Weather Stations






























Interactive Weather Map New forecast layout! Learn more

10-Day Weather Forecast

Advertisements
Track Severe Weather on mobile